M I D A S
Marine Information and Data Acquisition System
Tripno 129 of the Zeeleeuw from 2001-05-11 11:20:00 to 2001-05-11 14:45:00
Back to CruiseResearch ActivitiesStationsMapUnderway DataData graphs

EquipmentUnitsComments
TimeDGPSUTC
LatitudeDGPSDM.mWGS84
LongitudeDGPSDM.mWGS84
SpeedMeteo Stationm/sRelative wind speed
DirectionMeteo StationdegRelative wind direction
TemperatureMeteo Stationdeg CelciusAir temperature
PressureMeteo StationPaAtmospheric pressure
HumidityMeteo Station%Relative humidity
Missing or incorrect values are displayed as -999
Metereological data collected by the RV Zeeleeuw from 2001-05-11 11:20:00 to 2001-05-11 14:45:00
Time Latitude Longitude Speed Direction Temperature Pressure Humidity
2001-05-11 11:21 51°12.344 2°48.803 -999 -999 16.5 101980 67
2001-05-11 11:22 51°12.36 2°48.844 -999 -999 16.6 101990 67
2001-05-11 11:23 51°12.373 2°48.889 -999 -999 16.7 101990 67
2001-05-11 11:24 51°12.383 2°48.937 -999 -999 16.6 101990 67
2001-05-11 11:25 51°12.393 2°48.987 -999 -999 16.5 101980 67
2001-05-11 11:26 51°12.404 2°49.027 -999 -999 16.6 101980 67
2001-05-11 11:27 51°12.412 2°49.058 -999 -999 16.6 101980 67
2001-05-11 11:28 51°12.412 2°49.086 -999 -999 16.6 101970 67
2001-05-11 11:29 51°12.404 2°49.111 -999 -999 16.6 101980 67
2001-05-11 11:30 51°12.388 2°49.132 -999 -999 16.6 101980 67
2001-05-11 11:31 51°12.365 2°49.147 -999 -999 16.6 101980 67
2001-05-11 11:32 51°12.32 2°49.17 -999 -999 16.5 101980 68
2001-05-11 11:33 51°12.235 2°49.091 -999 -999 16.3 101990 68
2001-05-11 11:34 51°12.215 2°48.963 -999 -999 16.3 101980 69
2001-05-11 11:35 51°12.227 2°48.865 -999 -999 16.2 101980 69
2001-05-11 11:36 51°12.247 2°48.799 -999 -999 16 101980 70
2001-05-11 11:37 51°12.263 2°48.752 -999 -999 15.8 101980 71
2001-05-11 11:38 51°12.272 2°48.708 -999 -999 15.8 101970 71
2001-05-11 11:39 51°12.313 2°48.695 -999 -999 15.7 101970 71
2001-05-11 11:40 51°12.305 2°48.799 -999 -999 15.8 101970 71
2001-05-11 11:41 51°12.203 2°48.789 -999 -999 15.8 101980 71
2001-05-11 11:42 51°12.176 2°48.613 -999 -999 15.9 101970 71
2001-05-11 11:43 51°12.217 2°48.507 -999 -999 15.8 101970 70
2001-05-11 11:44 51°12.242 2°48.442 -999 -999 15.8 101970 70
2001-05-11 11:45 51°12.257 2°48.39 -999 -999 15.8 101970 70
2001-05-11 11:46 51°12.265 2°48.347 -999 -999 15.8 101970 71
2001-05-11 11:47 51°12.268 2°48.305 -999 -999 15.8 101980 70
2001-05-11 11:48 51°12.313 2°48.34 -999 -999 15.8 101970 71
2001-05-11 11:49 51°12.398 2°48.6 -999 -999 15.8 101960 71
2001-05-11 11:50 51°12.491 2°48.876 -999 -999 15.7 101960 72
2001-05-11 11:51 51°12.578 2°49.136 -999 -999 15.6 101960 72
2001-05-11 11:52 51°12.668 2°49.417 -999 -999 15.5 101970 73
2001-05-11 11:53 51°12.755 2°49.698 -999 -999 15.4 101960 73
2001-05-11 11:54 51°12.84 2°49.967 -999 -999 15.4 101960 73
2001-05-11 11:55 51°12.924 2°50.236 -999 -999 15.4 101960 74
2001-05-11 11:56 51°13.012 2°50.509 -999 -999 15.3 101960 74
2001-05-11 11:57 51°13.096 2°50.776 -999 -999 15.3 101950 74
2001-05-11 11:58 51°13.184 2°51.053 -999 -999 15.4 101960 74
2001-05-11 11:59 51°13.27 2°51.327 -999 -999 15.4 101950 74
2001-05-11 12:00 51°13.36 2°51.6 -999 -999 15.5 101950 73
2001-05-11 12:01 51°13.448 2°51.875 -999 -999 15.6 101960 73
2001-05-11 12:02 51°13.535 2°52.16 -999 -999 15.7 101950 73
2001-05-11 12:03 51°13.627 2°52.452 -999 -999 15.8 101940 72
2001-05-11 12:04 51°13.728 2°52.733 -999 -999 15.9 101950 71
2001-05-11 12:05 51°13.842 2°53.014 -999 -999 15.8 101960 72
2001-05-11 12:06 51°13.958 2°53.305 -999 -999 15.7 101950 73
2001-05-11 12:07 51°14.07 2°53.587 -999 -999 15.7 101960 74
2001-05-11 12:08 51°14.184 2°53.877 -999 -999 15.6 101960 75
2001-05-11 12:09 51°14.299 2°54.172 -999 -999 15.5 101950 75
2001-05-11 12:10 51°14.411 2°54.466 -999 -999 15.4 101950 75
2001-05-11 12:11 51°14.485 2°54.786 -999 -999 15.4 101940 75
2001-05-11 12:12 51°14.434 2°55.068 -999 -999 15.4 101960 75
2001-05-11 12:13 51°14.345 2°55.25 -999 -999 15.4 101980 75
2001-05-11 12:14 51°14.265 2°55.385 -999 -999 15.5 101980 75
2001-05-11 12:15 51°14.186 2°55.486 -999 -999 15.7 101980 76
2001-05-11 12:16 51°14.1 2°55.551 -999 -999 15.9 101980 75
2001-05-11 12:17 51°13.999 2°55.631 -999 -999 16.3 101980 74
2001-05-11 12:18 51°13.914 2°55.69 -999 -999 16.6 101980 72
2001-05-11 12:19 51°13.858 2°55.729 -999 -999 17 101970 69
2001-05-11 12:20 51°13.819 2°55.773 -999 -999 17.4 101970 67
2001-05-11 12:21 51°13.792 2°55.819 -999 -999 18.1 101970 64
2001-05-11 12:22 51°13.77 2°55.868 -999 -999 18.6 101970 62
2001-05-11 12:23 51°13.751 2°55.92 -999 -999 19 101970 62
2001-05-11 12:24 51°13.739 2°55.966 -999 -999 19.4 101970 60
2001-05-11 12:25 51°13.728 2°55.999 -999 -999 19.9 101970 56
2001-05-11 12:26 51°13.724 2°56.006 -999 -999 20.3 101960 54
2001-05-11 12:27 51°13.727 2°56.007 -999 -999 20.6 101970 51
2001-05-11 12:28 51°13.728 2°56.007 -999 -999 20.7 101970 51
2001-05-11 12:29 51°13.727 2°56.007 -999 -999 21 101970 51
2001-05-11 12:30 51°13.727 2°56.007 -999 -999 21.1 101970 50
2001-05-11 12:31 51°13.726 2°56.006 -999 -999 21.1 101970 51
2001-05-11 12:32 51°13.726 2°56.006 -999 -999 21 -999 52
2001-05-11 12:33 51°13.727 2°56.006 -999 -999 21.1 101970 51
2001-05-11 12:34 51°13.727 2°56.005 -999 -999 21.2 101970 52
2001-05-11 12:35 51°13.728 2°56.006 -999 -999 21.3 101970 50
2001-05-11 12:36 51°13.728 2°56.006 -999 -999 21.4 101970 51
2001-05-11 12:37 51°13.727 2°56.006 -999 -999 21.3 101970 50
2001-05-11 12:38 51°13.727 2°56.006 -999 -999 21.3 101970 49
2001-05-11 12:39 51°13.727 2°56.006 -999 -999 21.3 101970 49
2001-05-11 12:40 51°13.726 2°56.005 -999 -999 21.2 101960 50
2001-05-11 12:41 51°13.725 2°56.003 -999 -999 21.1 101970 51
2001-05-11 12:42 51°13.725 2°56.003 -999 -999 21.1 101970 50
2001-05-11 12:43 51°13.725 2°56.002 -999 -999 21.4 101970 51
2001-05-11 12:44 51°13.728 2°56.005 -999 -999 21.5 101970 50
2001-05-11 12:45 51°13.728 2°56.006 -999 -999 21.5 101970 50
2001-05-11 12:46 51°13.729 2°56.006 -999 -999 21.3 101970 49
2001-05-11 12:47 51°13.729 2°56.006 -999 -999 21 101970 50
2001-05-11 12:48 51°13.728 2°56.006 -999 -999 20.9 101970 51
2001-05-11 12:49 51°13.724 2°56.003 -999 -999 20.8 101970 51
2001-05-11 12:50 51°13.725 2°56.004 -999 -999 20.9 101970 51
2001-05-11 12:51 51°13.726 2°56.005 -999 -999 20.8 101970 52
2001-05-11 12:52 51°13.726 2°56.006 -999 -999 20.7 101970 52
2001-05-11 12:53 51°13.727 2°56.006 -999 -999 20.7 101970 51
2001-05-11 12:54 51°13.727 2°56.007 -999 -999 20.7 101970 51
2001-05-11 12:55 51°13.727 2°56.007 -999 -999 20.6 101970 52
2001-05-11 12:56 51°13.726 2°56.006 -999 -999 20.5 101970 52
2001-05-11 12:57 51°13.726 2°56.006 -999 -999 20.3 101970 54
2001-05-11 12:58 51°13.726 2°56.005 -999 -999 20.4 101970 53
2001-05-11 12:59 51°13.726 2°56.005 -999 -999 20.4 101970 53
2001-05-11 13:00 51°13.725 2°56.005 -999 -999 20.5 101970 53
2001-05-11 13:01 51°13.726 2°56.005 -999 -999 20.5 101970 53
2001-05-11 13:02 51°13.725 2°56.007 -999 -999 20.7 101960 52
2001-05-11 13:03 51°13.726 2°56.007 -999 -999 20.7 101960 51
2001-05-11 13:04 51°13.725 2°56.006 -999 -999 20.7 101960 52
2001-05-11 13:05 51°13.726 2°56.006 -999 -999 20.7 101960 52
2001-05-11 13:06 51°13.726 2°56.007 -999 -999 20.7 101960 52
2001-05-11 13:07 51°13.727 2°56.006 -999 -999 20.8 101960 52
2001-05-11 13:08 51°13.727 2°56.005 -999 -999 21 101960 50
2001-05-11 13:09 51°13.728 2°56.005 -999 -999 21.1 101960 50
2001-05-11 13:10 51°13.727 2°56.005 -999 -999 21.2 101960 50
2001-05-11 13:11 51°13.727 2°56.005 -999 -999 21.1 101960 50
2001-05-11 13:12 51°13.727 2°56.005 -999 -999 21.1 101960 51
2001-05-11 13:13 51°13.727 2°56.006 -999 -999 20.9 101960 51
2001-05-11 13:14 51°13.727 2°56.006 -999 -999 20.7 101960 53
2001-05-11 13:15 51°13.727 2°56.006 -999 -999 20.5 101950 54